sensor_id;sensor_type;location;lat;lon;timestamp;pressure;altitude;pressure_sealevel;temperature;humidity
57234;BME280;43090;52.604;13.318;2022-09-01T00:01:47;101836.59;;;14.32;81.71
57234;BME280;43090;52.604;13.318;2022-09-01T00:04:17;101825.38;;;14.39;81.82
57234;BME280;43090;52.604;13.318;2022-09-01T00:06:46;101844.78;;;14.44;82.54
57234;BME280;43090;52.604;13.318;2022-09-01T00:09:18;101835.94;;;14.55;81.41
57234;BME280;43090;52.604;13.318;2022-09-01T00:11:49;101822.47;;;14.42;80.44
57234;BME280;43090;52.604;13.318;2022-09-01T00:14:17;101834.22;;;14.54;81.16
57234;BME280;43090;52.604;13.318;2022-09-01T00:16:58;101805.13;;;14.20;81.09
57234;BME280;43090;52.604;13.318;2022-09-01T00:19:25;101838.00;;;14.51;81.44
57234;BME280;43090;52.604;13.318;2022-09-01T00:21:55;101810.94;;;14.40;81.57
57234;BME280;43090;52.604;13.318;2022-09-01T00:24:22;101846.06;;;14.51;82.09
57234;BME280;43090;52.604;13.318;2022-09-01T00:26:48;101856.66;;;14.67;81.05
57234;BME280;43090;52.604;13.318;2022-09-01T00:29:15;101818.78;;;14.30;81.81
57234;BME280;43090;52.604;13.318;2022-09-01T00:31:42;101856.00;;;14.50;80.16
57234;BME280;43090;52.604;13.318;2022-09-01T00:34:11;101833.97;;;14.18;80.49
57234;BME280;43090;52.604;13.318;2022-09-01T00:36:38;101839.59;;;14.15;81.84
57234;BME280;43090;52.604;13.318;2022-09-01T00:39:06;101816.75;;;14.21;80.77
57234;BME280;43090;52.604;13.318;2022-09-01T00:41:34;101846.19;;;14.24;81.36
57234;BME280;43090;52.604;13.318;2022-09-01T00:44:07;101804.38;;;14.05;82.94
57234;BME280;43090;52.604;13.318;2022-09-01T00:46:45;101815.84;;;13.94;82.53
57234;BME280;43090;52.604;13.318;2022-09-01T00:52:00;101832.28;;;14.43;80.41
57234;BME280;43090;52.604;13.318;2022-09-01T00:54:35;101812.97;;;13.97;81.58
57234;BME280;43090;52.604;13.318;2022-09-01T00:57:03;101847.00;;;13.98;84.30
57234;BME280;43090;52.604;13.318;2022-09-01T00:59:30;101798.63;;;13.84;82.17
57234;BME280;43090;52.604;13.318;2022-09-01T01:02:00;101823.44;;;14.28;82.10
57234;BME280;43090;52.604;13.318;2022-09-01T01:04:26;101845.53;;;14.46;81.69
57234;BME280;43090;52.604;13.318;2022-09-01T01:06:56;101851.47;;;14.25;81.69
57234;BME280;43090;52.604;13.318;2022-09-01T01:09:30;101844.31;;;13.98;81.08
57234;BME280;43090;52.604;13.318;2022-09-01T01:12:01;101829.44;;;14.06;81.88
57234;BME280;43090;52.604;13.318;2022-09-01T01:14:29;101810.81;;;14.03;81.73
57234;BME280;43090;52.604;13.318;2022-09-01T01:16:59;101814.97;;;13.81;82.74
57234;BME280;43090;52.604;13.318;2022-09-01T01:19:36;101840.31;;;14.04;82.30
57234;BME280;43090;52.604;13.318;2022-09-01T01:25:19;101826.28;;;13.73;83.15
57234;BME280;43090;52.604;13.318;2022-09-01T01:27:47;101832.69;;;14.11;82.09
57234;BME280;43090;52.604;13.318;2022-09-01T01:30:15;101842.81;;;14.20;80.91
57234;BME280;43090;52.604;13.318;2022-09-01T01:32:44;101810.06;;;13.60;83.36
57234;BME280;43090;52.604;13.318;2022-09-01T01:35:12;101840.06;;;13.94;82.75
57234;BME280;43090;52.604;13.318;2022-09-01T01:37:41;101844.38;;;13.97;82.24
57234;BME280;43090;52.604;13.318;2022-09-01T01:40:17;101830.41;;;14.05;82.01
57234;BME280;43090;52.604;13.318;2022-09-01T01:42:46;101837.09;;;13.99;83.16
57234;BME280;43090;52.604;13.318;2022-09-01T01:45:14;101842.91;;;14.06;82.49
57234;BME280;43090;52.604;13.318;2022-09-01T01:47:47;101829.19;;;13.83;82.89
57234;BME280;43090;52.604;13.318;2022-09-01T01:50:17;101805.75;;;13.58;83.18
57234;BME280;43090;52.604;13.318;2022-09-01T01:52:43;101841.63;;;14.11;82.39
57234;BME280;43090;52.604;13.318;2022-09-01T01:55:11;101799.88;;;13.65;83.59
57234;BME280;43090;52.604;13.318;2022-09-01T01:57:39;101827.13;;;13.74;83.90
57234;BME280;43090;52.604;13.318;2022-09-01T02:00:20;101843.22;;;13.61;84.62
57234;BME280;43090;52.604;13.318;2022-09-01T02:02:55;101821.63;;;13.48;84.12
57234;BME280;43090;52.604;13.318;2022-09-01T02:05:26;101828.75;;;13.49;84.29
57234;BME280;43090;52.604;13.318;2022-09-01T02:07:55;101826.06;;;13.49;83.56
57234;BME280;43090;52.604;13.318;2022-09-01T02:10:27;101831.03;;;13.82;83.14
57234;BME280;43090;52.604;13.318;2022-09-01T02:13:00;101835.53;;;13.82;83.35
57234;BME280;43090;52.604;13.318;2022-09-01T02:15:36;101839.69;;;13.60;83.72
57234;BME280;43090;52.604;13.318;2022-09-01T02:18:11;101835.53;;;13.82;82.17
57234;BME280;43090;52.604;13.318;2022-09-01T02:20:40;101836.72;;;13.50;83.94
57234;BME280;43090;52.604;13.318;2022-09-01T02:23:08;101846.91;;;13.45;83.78
57234;BME280;43090;52.604;13.318;2022-09-01T02:25:43;101814.13;;;13.11;86.48
57234;BME280;43090;52.604;13.318;2022-09-01T02:28:33;101844.50;;;13.55;84.85
57234;BME280;43090;52.604;13.318;2022-09-01T02:31:03;101822.41;;;13.36;84.87
57234;BME280;43090;52.604;13.318;2022-09-01T02:33:30;101831.59;;;13.19;85.07
57234;BME280;43090;52.604;13.318;2022-09-01T02:36:00;101838.84;;;13.45;85.61
57234;BME280;43090;52.604;13.318;2022-09-01T02:38:28;101823.22;;;13.23;85.69
57234;BME280;43090;52.604;13.318;2022-09-01T02:40:56;101835.47;;;13.56;85.19
57234;BME280;43090;52.604;13.318;2022-09-01T02:43:24;101834.56;;;13.43;84.49
57234;BME280;43090;52.604;13.318;2022-09-01T02:45:55;101819.16;;;13.03;86.85
57234;BME280;43090;52.604;13.318;2022-09-01T02:48:28;101798.13;;;12.95;86.56
57234;BME280;43090;52.604;13.318;2022-09-01T02:51:10;101821.84;;;12.89;87.46
57234;BME280;43090;52.604;13.318;2022-09-01T02:53:41;101826.25;;;12.90;87.52
57234;BME280;43090;52.604;13.318;2022-09-01T02:56:10;101810.25;;;12.59;88.45
57234;BME280;43090;52.604;13.318;2022-09-01T02:58:42;101791.47;;;12.45;89.56
57234;BME280;43090;52.604;13.318;2022-09-01T03:01:17;101827.34;;;12.73;88.90
57234;BME280;43090;52.604;13.318;2022-09-01T03:03:53;101797.97;;;12.55;89.51
57234;BME280;43090;52.604;13.318;2022-09-01T03:06:21;101813.31;;;12.82;88.27
57234;BME280;43090;52.604;13.318;2022-09-01T03:08:51;101791.44;;;12.74;88.17
57234;BME280;43090;52.604;13.318;2022-09-01T03:11:19;101803.75;;;12.49;89.96
57234;BME280;43090;52.604;13.318;2022-09-01T03:13:46;101808.13;;;12.36;91.13
57234;BME280;43090;52.604;13.318;2022-09-01T03:16:12;101810.25;;;12.45;92.15
57234;BME280;43090;52.604;13.318;2022-09-01T03:18:39;101804.38;;;12.53;90.98
57234;BME280;43090;52.604;13.318;2022-09-01T03:21:06;101774.38;;;12.60;89.18
57234;BME280;43090;52.604;13.318;2022-09-01T03:23:34;101783.00;;;12.65;87.87
57234;BME280;43090;52.604;13.318;2022-09-01T03:26:00;101823.59;;;12.46;90.50
57234;BME280;43090;52.604;13.318;2022-09-01T03:28:27;101825.28;;;12.19;92.49
57234;BME280;43090;52.604;13.318;2022-09-01T03:30:55;101806.03;;;12.55;91.05
57234;BME280;43090;52.604;13.318;2022-09-01T03:33:24;101790.88;;;12.25;91.23
57234;BME280;43090;52.604;13.318;2022-09-01T03:35:54;101822.13;;;12.12;91.33
57234;BME280;43090;52.604;13.318;2022-09-01T03:38:22;101805.25;;;12.24;92.43
57234;BME280;43090;52.604;13.318;2022-09-01T03:40:58;101816.69;;;12.42;89.57
57234;BME280;43090;52.604;13.318;2022-09-01T03:43:29;101764.38;;;12.05;90.28
57234;BME280;43090;52.604;13.318;2022-09-01T03:46:01;101815.31;;;12.35;90.63
57234;BME280;43090;52.604;13.318;2022-09-01T03:48:29;101770.81;;;12.31;89.00
57234;BME280;43090;52.604;13.318;2022-09-01T03:50:58;101816.72;;;11.97;91.44
57234;BME280;43090;52.604;13.318;2022-09-01T03:53:30;101822.72;;;12.01;90.82
57234;BME280;43090;52.604;13.318;2022-09-01T03:55:58;101789.34;;;11.91;91.51
57234;BME280;43090;52.604;13.318;2022-09-01T03:58:25;101835.78;;;12.52;89.12
57234;BME280;43090;52.604;13.318;2022-09-01T04:00:55;101829.31;;;12.26;90.02
57234;BME280;43090;52.604;13.318;2022-09-01T04:03:25;101812.19;;;11.98;91.02
57234;BME280;43090;52.604;13.318;2022-09-01T04:05:54;101813.88;;;12.15;91.52
57234;BME280;43090;52.604;13.318;2022-09-01T04:08:21;101803.69;;;12.06;92.01
57234;BME280;43090;52.604;13.318;2022-09-01T04:11:00;101814.75;;;11.69;93.81
57234;BME280;43090;52.604;13.318;2022-09-01T04:13:33;101799.00;;;11.79;93.46
57234;BME280;43090;52.604;13.318;2022-09-01T04:16:01;101781.19;;;11.92;91.37
57234;BME280;43090;52.604;13.318;2022-09-01T04:18:28;101807.34;;;11.89;91.59
57234;BME280;43090;52.604;13.318;2022-09-01T04:20:58;101788.50;;;11.74;92.31
57234;BME280;43090;52.604;13.318;2022-09-01T04:23:26;101809.34;;;11.39;95.14
57234;BME280;43090;52.604;13.318;2022-09-01T04:25:57;101816.84;;;11.48;95.96
57234;BME280;43090;52.604;13.318;2022-09-01T04:28:32;101811.56;;;11.93;93.86
57234;BME280;43090;52.604;13.318;2022-09-01T04:31:05;101794.75;;;12.05;92.07
57234;BME280;43090;52.604;13.318;2022-09-01T04:33:34;101790.34;;;12.04;91.71
57234;BME280;43090;52.604;13.318;2022-09-01T04:36:16;101781.84;;;11.81;91.21
57234;BME280;43090;52.604;13.318;2022-09-01T04:38:51;101785.16;;;12.01;91.22
57234;BME280;43090;52.604;13.318;2022-09-01T04:41:24;101804.34;;;11.79;93.81
57234;BME280;43090;52.604;13.318;2022-09-01T04:43:52;101789.41;;;11.59;95.83
57234;BME280;43090;52.604;13.318;2022-09-01T04:46:23;101821.03;;;12.00;92.68
57234;BME280;43090;52.604;13.318;2022-09-01T04:48:52;101809.19;;;11.88;93.18
57234;BME280;43090;52.604;13.318;2022-09-01T04:51:18;101794.56;;;11.78;93.50
57234;BME280;43090;52.604;13.318;2022-09-01T04:53:46;101804.50;;;11.76;94.21
57234;BME280;43090;52.604;13.318;2022-09-01T04:56:16;101825.50;;;11.99;95.01
57234;BME280;43090;52.604;13.318;2022-09-01T04:58:49;101824.97;;;12.09;94.49
57234;BME280;43090;52.604;13.318;2022-09-01T05:01:19;101817.81;;;11.93;94.63
57234;BME280;43090;52.604;13.318;2022-09-01T05:03:49;101821.47;;;12.23;93.90
57234;BME280;43090;52.604;13.318;2022-09-01T05:06:24;101833.16;;;12.36;93.22
57234;BME280;43090;52.604;13.318;2022-09-01T05:08:51;101814.97;;;11.96;93.07
57234;BME280;43090;52.604;13.318;2022-09-01T05:11:17;101803.38;;;11.80;95.81
57234;BME280;43090;52.604;13.318;2022-09-01T05:13:49;101774.94;;;11.92;92.71
57234;BME280;43090;52.604;13.318;2022-09-01T05:16:18;101793.66;;;11.93;93.83
57234;BME280;43090;52.604;13.318;2022-09-01T05:18:56;101802.28;;;12.14;92.32
57234;BME280;43090;52.604;13.318;2022-09-01T05:21:46;101767.63;;;11.95;93.96
57234;BME280;43090;52.604;13.318;2022-09-01T05:24:17;101790.47;;;12.03;94.16
57234;BME280;43090;52.604;13.318;2022-09-01T05:26:50;101807.56;;;12.30;93.37
57234;BME280;43090;52.604;13.318;2022-09-01T05:29:21;101803.19;;;11.99;94.26
57234;BME280;43090;52.604;13.318;2022-09-01T05:31:53;101785.19;;;11.85;94.24
57234;BME280;43090;52.604;13.318;2022-09-01T05:34:31;101824.56;;;12.00;95.98
57234;BME280;43090;52.604;13.318;2022-09-01T05:37:11;101785.66;;;12.08;94.55
57234;BME280;43090;52.604;13.318;2022-09-01T05:39:38;101772.53;;;12.03;94.60
57234;BME280;43090;52.604;13.318;2022-09-01T05:42:06;101776.53;;;12.10;94.81
57234;BME280;43090;52.604;13.318;2022-09-01T05:44:43;101828.66;;;12.37;95.10
57234;BME280;43090;52.604;13.318;2022-09-01T05:47:20;101814.97;;;12.56;94.13
57234;BME280;43090;52.604;13.318;2022-09-01T05:57:29;101832.50;;;12.47;95.36
57234;BME280;43090;52.604;13.318;2022-09-01T06:00:05;101807.06;;;12.53;94.42
57234;BME280;43090;52.604;13.318;2022-09-01T06:02:41;101836.34;;;12.86;93.61
57234;BME280;43090;52.604;13.318;2022-09-01T06:05:25;101808.72;;;12.55;94.58
57234;BME280;43090;52.604;13.318;2022-09-01T06:07:52;101779.00;;;12.58;93.52
57234;BME280;43090;52.604;13.318;2022-09-01T06:10:20;101841.63;;;12.88;93.65
57234;BME280;43090;52.604;13.318;2022-09-01T06:13:06;101810.25;;;12.74;94.18
57234;BME280;43090;52.604;13.318;2022-09-01T06:15:39;101838.31;;;13.26;92.77
57234;BME280;43090;52.604;13.318;2022-09-01T06:18:08;101788.56;;;12.77;93.32
57234;BME280;43090;52.604;13.318;2022-09-01T06:20:43;101781.19;;;13.08;91.55
57234;BME280;43090;52.604;13.318;2022-09-01T06:23:14;101825.81;;;13.39;90.86
57234;BME280;43090;52.604;13.318;2022-09-01T06:26:42;101832.16;;;13.65;89.44
57234;BME280;43090;52.604;13.318;2022-09-01T06:29:06;101825.16;;;13.21;91.53
57234;BME280;43090;52.604;13.318;2022-09-01T06:31:37;101802.31;;;13.14;91.35
57234;BME280;43090;52.604;13.318;2022-09-01T06:34:10;101817.13;;;13.48;89.87
57234;BME280;43090;52.604;13.318;2022-09-01T06:36:42;101840.91;;;13.82;88.02
57234;BME280;43090;52.604;13.318;2022-09-01T06:39:09;101842.66;;;13.83;89.17
57234;BME280;43090;52.604;13.318;2022-09-01T06:41:49;101839.81;;;13.72;89.80
57234;BME280;43090;52.604;13.318;2022-09-01T06:44:19;101823.63;;;13.99;88.24
57234;BME280;43090;52.604;13.318;2022-09-01T06:46:50;101791.16;;;13.88;88.07
57234;BME280;43090;52.604;13.318;2022-09-01T06:49:20;101799.38;;;13.86;87.66
57234;BME280;43090;52.604;13.318;2022-09-01T06:51:50;101835.41;;;14.37;86.66
57234;BME280;43090;52.604;13.318;2022-09-01T06:54:18;101819.16;;;14.38;84.49
57234;BME280;43090;52.604;13.318;2022-09-01T06:56:46;101842.56;;;14.63;82.87
57234;BME280;43090;52.604;13.318;2022-09-01T06:59:18;101831.78;;;14.63;82.41
57234;BME280;43090;52.604;13.318;2022-09-01T07:01:45;101802.44;;;14.72;82.66
57234;BME280;43090;52.604;13.318;2022-09-01T07:04:14;101817.75;;;14.71;83.16
57234;BME280;43090;52.604;13.318;2022-09-01T07:06:51;101833.34;;;15.05;81.39
57234;BME280;43090;52.604;13.318;2022-09-01T07:09:38;101841.03;;;14.85;84.17
57234;BME280;43090;52.604;13.318;2022-09-01T07:20:05;101802.69;;;15.06;81.75
57234;BME280;43090;52.604;13.318;2022-09-01T07:22:57;101862.63;;;15.22;80.53
57234;BME280;43090;52.604;13.318;2022-09-01T07:25:38;101804.59;;;15.16;78.52
57234;BME280;43090;52.604;13.318;2022-09-01T07:28:56;101843.44;;;15.51;79.55
57234;BME280;43090;52.604;13.318;2022-09-01T07:35:57;101815.22;;;15.31;77.83
57234;BME280;43090;52.604;13.318;2022-09-01T07:38:47;101805.56;;;15.40;75.54
57234;BME280;43090;52.604;13.318;2022-09-01T07:42:04;101811.59;;;15.68;74.65
57234;BME280;43090;52.604;13.318;2022-09-01T07:53:27;101832.81;;;15.85;74.15
57234;BME280;43090;52.604;13.318;2022-09-01T07:56:09;101844.22;;;16.13;69.62
57234;BME280;43090;52.604;13.318;2022-09-01T07:58:38;101820.25;;;16.08;70.56
57234;BME280;43090;52.604;13.318;2022-09-01T08:01:10;101804.03;;;16.08;71.86
57234;BME280;43090;52.604;13.318;2022-09-01T08:03:39;101811.97;;;16.57;66.17
57234;BME280;43090;52.604;13.318;2022-09-01T08:06:10;101810.63;;;16.74;65.67
57234;BME280;43090;52.604;13.318;2022-09-01T08:08:38;101848.25;;;16.99;64.40
57234;BME280;43090;52.604;13.318;2022-09-01T08:11:06;101831.97;;;17.22;62.12
57234;BME280;43090;52.604;13.318;2022-09-01T08:13:35;101816.34;;;17.26;62.71
57234;BME280;43090;52.604;13.318;2022-09-01T08:16:10;101848.47;;;17.30;62.42
57234;BME280;43090;52.604;13.318;2022-09-01T08:18:46;101834.31;;;17.15;61.39
57234;BME280;43090;52.604;13.318;2022-09-01T08:28:52;101840.16;;;17.55;60.19
57234;BME280;43090;52.604;13.318;2022-09-01T08:31:26;101862.34;;;17.37;64.53
57234;BME280;43090;52.604;13.318;2022-09-01T08:34:06;101832.94;;;17.32;62.35
57234;BME280;43090;52.604;13.318;2022-09-01T08:40:59;101804.63;;;17.37;61.94
57234;BME280;43090;52.604;13.318;2022-09-01T08:46:41;101828.00;;;17.49;58.15
57234;BME280;43090;52.604;13.318;2022-09-01T08:53:35;101809.34;;;17.35;59.71
57234;BME280;43090;52.604;13.318;2022-09-01T08:56:04;101849.38;;;17.52;59.14
57234;BME280;43090;52.604;13.318;2022-09-01T08:59:04;101852.75;;;17.77;62.75
57234;BME280;43090;52.604;13.318;2022-09-01T09:09:01;101781.56;;;17.54;61.25
57234;BME280;43090;52.604;13.318;2022-09-01T09:15:46;101820.88;;;18.02;61.81
57234;BME280;43090;52.604;13.318;2022-09-01T09:23:16;101803.19;;;17.97;58.10
57234;BME280;43090;52.604;13.318;2022-09-01T09:29:53;101775.56;;;18.04;55.27
57234;BME280;43090;52.604;13.318;2022-09-01T10:07:35;101820.63;;;19.28;51.59
57234;BME280;43090;52.604;13.318;2022-09-01T10:16:44;101778.19;;;19.47;48.75
57234;BME280;43090;52.604;13.318;2022-09-01T10:26:44;101783.78;;;19.45;47.35
57234;BME280;43090;52.604;13.318;2022-09-01T10:29:18;101793.38;;;19.40;50.11
57234;BME280;43090;52.604;13.318;2022-09-01T10:31:53;101820.38;;;19.41;49.66
57234;BME280;43090;52.604;13.318;2022-09-01T10:34:41;101799.66;;;19.30;49.13
57234;BME280;43090;52.604;13.318;2022-09-01T10:37:23;101795.94;;;19.51;48.76
57234;BME280;43090;52.604;13.318;2022-09-01T10:40:53;101805.00;;;18.70;50.81
57234;BME280;43090;52.604;13.318;2022-09-01T10:45:05;101772.31;;;19.03;48.55
57234;BME280;43090;52.604;13.318;2022-09-01T10:48:34;101757.91;;;19.41;47.45
57234;BME280;43090;52.604;13.318;2022-09-01T10:51:42;101794.66;;;19.65;47.58
57234;BME280;43090;52.604;13.318;2022-09-01T11:28:42;101794.78;;;20.03;45.72
57234;BME280;43090;52.604;13.318;2022-09-01T11:32:13;101789.00;;;20.25;44.09
57234;BME280;43090;52.604;13.318;2022-09-01T11:42:27;101815.25;;;19.68;49.31
57234;BME280;43090;52.604;13.318;2022-09-01T11:45:13;101806.56;;;19.84;45.88
57234;BME280;43090;52.604;13.318;2022-09-01T11:48:16;101759.63;;;19.52;46.75
57234;BME280;43090;52.604;13.318;2022-09-01T11:58:46;101791.38;;;19.61;47.36
57234;BME280;43090;52.604;13.318;2022-09-01T12:01:36;101812.53;;;19.68;46.68
57234;BME280;43090;52.604;13.318;2022-09-01T12:04:37;101813.09;;;19.61;50.11
57234;BME280;43090;52.604;13.318;2022-09-01T12:12:00;101794.78;;;19.44;48.00
57234;BME280;43090;52.604;13.318;2022-09-01T12:15:03;101759.59;;;19.13;46.99
57234;BME280;43090;52.604;13.318;2022-09-01T12:21:04;101788.16;;;18.97;51.02
57234;BME280;43090;52.604;13.318;2022-09-01T12:23:38;101767.38;;;18.87;51.23
57234;BME280;43090;52.604;13.318;2022-09-01T12:26:17;101781.88;;;18.66;53.79
57234;BME280;43090;52.604;13.318;2022-09-01T12:28:46;101790.56;;;19.01;53.08
57234;BME280;43090;52.604;13.318;2022-09-01T12:31:42;101769.78;;;19.50;47.82
57234;BME280;43090;52.604;13.318;2022-09-01T12:37:26;101755.19;;;19.71;46.90
57234;BME280;43090;52.604;13.318;2022-09-01T12:39:57;101784.63;;;19.65;47.93
57234;BME280;43090;52.604;13.318;2022-09-01T12:42:48;101754.88;;;19.74;46.96
57234;BME280;43090;52.604;13.318;2022-09-01T12:45:35;101741.19;;;19.75;45.71
57234;BME280;43090;52.604;13.318;2022-09-01T12:48:36;101745.75;;;19.94;47.26
57234;BME280;43090;52.604;13.318;2022-09-01T12:55:20;101727.44;;;19.77;49.13
57234;BME280;43090;52.604;13.318;2022-09-01T12:58:21;101721.31;;;19.16;52.02
57234;BME280;43090;52.604;13.318;2022-09-01T13:01:26;101720.88;;;19.60;48.15
57234;BME280;43090;52.604;13.318;2022-09-01T13:04:22;101747.28;;;20.07;45.19
57234;BME280;43090;52.604;13.318;2022-09-01T13:10:43;101746.34;;;20.36;43.45
57234;BME280;43090;52.604;13.318;2022-09-01T13:17:48;101737.03;;;19.71;47.49
57234;BME280;43090;52.604;13.318;2022-09-01T13:32:26;101760.44;;;20.49;46.81
57234;BME280;43090;52.604;13.318;2022-09-01T13:41:28;101704.41;;;19.91;47.10
57234;BME280;43090;52.604;13.318;2022-09-01T13:44:13;101723.56;;;19.89;46.76
57234;BME280;43090;52.604;13.318;2022-09-01T13:47:53;101757.75;;;20.02;46.48
57234;BME280;43090;52.604;13.318;2022-09-01T13:51:39;101706.69;;;19.95;44.19
57234;BME280;43090;52.604;13.318;2022-09-01T13:54:52;101706.13;;;19.92;49.20
57234;BME280;43090;52.604;13.318;2022-09-01T14:01:01;101706.06;;;20.11;47.73
57234;BME280;43090;52.604;13.318;2022-09-01T14:07:22;101692.16;;;20.52;44.23
57234;BME280;43090;52.604;13.318;2022-09-01T14:09:53;101684.53;;;20.56;41.71
57234;BME280;43090;52.604;13.318;2022-09-01T14:12:35;101732.69;;;20.83;43.52
57234;BME280;43090;52.604;13.318;2022-09-01T14:15:11;101730.84;;;21.02;46.20
57234;BME280;43090;52.604;13.318;2022-09-01T14:17:44;101715.81;;;20.97;44.93
57234;BME280;43090;52.604;13.318;2022-09-01T14:20:19;101711.59;;;20.57;46.03
57234;BME280;43090;52.604;13.318;2022-09-01T14:22:47;101692.25;;;20.60;42.09
57234;BME280;43090;52.604;13.318;2022-09-01T14:25:16;101706.66;;;20.99;42.29
57234;BME280;43090;52.604;13.318;2022-09-01T14:27:43;101685.84;;;20.52;43.08
57234;BME280;43090;52.604;13.318;2022-09-01T14:30:17;101727.16;;;20.93;42.67
57234;BME280;43090;52.604;13.318;2022-09-01T14:32:55;101705.38;;;20.65;43.63
57234;BME280;43090;52.604;13.318;2022-09-01T14:35:24;101690.63;;;20.68;44.16
57234;BME280;43090;52.604;13.318;2022-09-01T14:37:54;101700.78;;;20.75;42.44
57234;BME280;43090;52.604;13.318;2022-09-01T14:40:22;101689.31;;;20.44;45.60
57234;BME280;43090;52.604;13.318;2022-09-01T14:42:51;101693.69;;;19.89;49.02
57234;BME280;43090;52.604;13.318;2022-09-01T14:45:25;101666.09;;;19.64;51.79
57234;BME280;43090;52.604;13.318;2022-09-01T14:47:58;101660.47;;;19.38;51.90
57234;BME280;43090;52.604;13.318;2022-09-01T14:50:29;101659.59;;;19.18;53.15
57234;BME280;43090;52.604;13.318;2022-09-01T14:53:08;101659.22;;;19.80;46.64
57234;BME280;43090;52.604;13.318;2022-09-01T14:55:44;101669.75;;;20.03;46.23
57234;BME280;43090;52.604;13.318;2022-09-01T14:58:26;101655.66;;;20.17;41.53
57234;BME280;43090;52.604;13.318;2022-09-01T15:00:56;101654.78;;;20.26;44.59
57234;BME280;43090;52.604;13.318;2022-09-01T15:03:43;101646.50;;;19.90;46.13
57234;BME280;43090;52.604;13.318;2022-09-01T15:06:13;101689.03;;;20.19;46.84
57234;BME280;43090;52.604;13.318;2022-09-01T15:08:41;101648.97;;;19.64;50.93
57234;BME280;43090;52.604;13.318;2022-09-01T15:11:10;101661.69;;;19.54;51.09
57234;BME280;43090;52.604;13.318;2022-09-01T15:13:38;101656.41;;;19.52;50.58
57234;BME280;43090;52.604;13.318;2022-09-01T15:16:15;101680.34;;;20.06;50.46
57234;BME280;43090;52.604;13.318;2022-09-01T15:18:43;101675.81;;;19.77;50.36
57234;BME280;43090;52.604;13.318;2022-09-01T15:21:54;101660.66;;;19.84;54.71
57234;BME280;43090;52.604;13.318;2022-09-01T15:24:31;101639.28;;;19.52;50.88
57234;BME280;43090;52.604;13.318;2022-09-01T15:26:58;101691.28;;;19.86;49.14
57234;BME280;43090;52.604;13.318;2022-09-01T15:29:25;101682.44;;;19.55;52.00
57234;BME280;43090;52.604;13.318;2022-09-01T15:31:52;101675.88;;;19.47;50.73
57234;BME280;43090;52.604;13.318;2022-09-01T15:34:21;101659.44;;;19.29;52.41
57234;BME280;43090;52.604;13.318;2022-09-01T15:36:47;101666.53;;;19.70;52.23
57234;BME280;43090;52.604;13.318;2022-09-01T15:39:14;101679.31;;;19.40;52.56
57234;BME280;43090;52.604;13.318;2022-09-01T15:41:42;101699.91;;;19.42;52.61
57234;BME280;43090;52.604;13.318;2022-09-01T15:44:09;101680.88;;;19.23;54.01
57234;BME280;43090;52.604;13.318;2022-09-01T15:46:36;101653.59;;;18.95;53.10
57234;BME280;43090;52.604;13.318;2022-09-01T15:49:07;101689.16;;;19.02;54.07
57234;BME280;43090;52.604;13.318;2022-09-01T15:51:37;101691.59;;;19.05;54.29
57234;BME280;43090;52.604;13.318;2022-09-01T15:54:08;101659.31;;;19.02;51.46
57234;BME280;43090;52.604;13.318;2022-09-01T15:56:36;101670.06;;;18.53;54.84
57234;BME280;43090;52.604;13.318;2022-09-01T15:59:03;101654.91;;;18.40;55.03
57234;BME280;43090;52.604;13.318;2022-09-01T16:01:33;101668.38;;;18.61;54.25
57234;BME280;43090;52.604;13.318;2022-09-01T16:04:02;101662.38;;;18.58;54.29
57234;BME280;43090;52.604;13.318;2022-09-01T16:06:34;101674.22;;;18.67;55.56
57234;BME280;43090;52.604;13.318;2022-09-01T16:09:04;101641.13;;;18.63;54.50
57234;BME280;43090;52.604;13.318;2022-09-01T16:11:31;101673.63;;;18.53;57.09
57234;BME280;43090;52.604;13.318;2022-09-01T16:13:58;101683.28;;;18.87;57.94
57234;BME280;43090;52.604;13.318;2022-09-01T16:16:34;101673.25;;;18.77;58.96
57234;BME280;43090;52.604;13.318;2022-09-01T16:24:06;101689.88;;;18.94;53.17
57234;BME280;43090;52.604;13.318;2022-09-01T16:26:36;101646.75;;;19.10;51.79
57234;BME280;43090;52.604;13.318;2022-09-01T16:32:11;101637.91;;;18.98;52.32
57234;BME280;43090;52.604;13.318;2022-09-01T16:34:41;101654.97;;;18.79;54.96
57234;BME280;43090;52.604;13.318;2022-09-01T16:43:07;101677.75;;;19.08;54.40
57234;BME280;43090;52.604;13.318;2022-09-01T16:45:40;101685.56;;;18.91;55.35
57234;BME280;43090;52.604;13.318;2022-09-01T16:53:59;101668.38;;;18.81;55.60
57234;BME280;43090;52.604;13.318;2022-09-01T17:22:31;101667.31;;;17.81;59.89
57234;BME280;43090;52.604;13.318;2022-09-01T17:25:04;101646.69;;;17.47;61.57
57234;BME280;43090;52.604;13.318;2022-09-01T17:28:15;101686.53;;;17.78;61.05
57234;BME280;43090;52.604;13.318;2022-09-01T17:30:53;101683.75;;;17.47;60.58
57234;BME280;43090;52.604;13.318;2022-09-01T17:33:47;101671.00;;;17.38;60.26
57234;BME280;43090;52.604;13.318;2022-09-01T17:42:25;101690.09;;;17.36;60.24
57234;BME280;43090;52.604;13.318;2022-09-01T17:45:15;101665.66;;;17.26;61.73
57234;BME280;43090;52.604;13.318;2022-09-01T17:48:13;101703.97;;;17.43;61.43
57234;BME280;43090;52.604;13.318;2022-09-01T17:51:43;101704.22;;;17.19;61.18
57234;BME280;43090;52.604;13.318;2022-09-01T17:54:28;101707.22;;;16.93;61.71
57234;BME280;43090;52.604;13.318;2022-09-01T17:57:05;101699.44;;;17.11;60.19
57234;BME280;43090;52.604;13.318;2022-09-01T17:59:47;101707.34;;;17.03;62.19